Mevagissey, United Kingdom
Current Conditions -  °F | °C
As of 8:50 PM on Monday 20 Oct 2014 (Local Time) from EGHQ Reporting Station
Rain Showers Rain Showers  
Wind Chill: 54°   Ceiling: Unl
Heat Index: 54°   Visibility: 6mi
Dew Point: 50°   Wind: 14mph
Humidity: 88%   Direction: 210°SSW
Pressure: 29.94"   Gusts: NA
Location:  50.27°N, 4.79°W
Report Text: EGHQ 201950Z 21012KT 9000 VCSH SCT030 SCT044 12/10 Q1014
Loading
Personal Weather Stations






























Interactive Weather Map
Tropical Storm Tracking
New forecast layout! Learn more

10-Day Weather Forecast

Advertisements
Track Severe Weather on mobile